createdAt,value
2018-07-27T00:01:01.888Z,19.53
2018-07-27T00:03:30.648Z,19.45
2018-07-27T00:05:59.370Z,19.42
2018-07-27T00:08:28.123Z,19.46
2018-07-27T00:10:56.796Z,19.31
2018-07-27T00:13:25.517Z,19.52
2018-07-27T00:15:54.173Z,19.43
2018-07-27T00:18:22.855Z,19.59
2018-07-27T00:20:51.533Z,19.77
2018-07-27T00:23:20.247Z,19.70
2018-07-27T00:25:48.956Z,19.59
2018-07-27T00:28:23.465Z,19.82
2018-07-27T00:30:55.229Z,19.69
2018-07-27T00:33:23.918Z,19.57
2018-07-27T00:35:52.590Z,19.48
2018-07-27T00:38:21.328Z,19.45
2018-07-27T00:40:50.028Z,19.80
2018-07-27T00:43:18.686Z,19.90
2018-07-27T00:45:47.377Z,19.65
2018-07-27T00:48:16.014Z,19.94
2018-07-27T00:50:44.745Z,19.58
2018-07-27T00:53:13.438Z,19.44
2018-07-27T00:55:42.111Z,19.39
2018-07-27T00:58:10.771Z,19.48
2018-07-27T01:00:39.456Z,19.60
2018-07-27T01:03:08.746Z,19.72
2018-07-27T01:05:37.435Z,19.72
2018-07-27T01:08:06.423Z,19.67
2018-07-27T01:10:35.096Z,19.48
2018-07-27T01:13:03.863Z,19.37
2018-07-27T01:15:32.395Z,19.23
2018-07-27T01:18:01.098Z,19.03
2018-07-27T01:20:29.891Z,19.09
2018-07-27T01:22:58.580Z,19.04
2018-07-27T01:25:27.276Z,18.98
2018-07-27T01:27:55.763Z,18.90
2018-07-27T01:30:24.268Z,18.76
2018-07-27T01:32:53.019Z,18.74
2018-07-27T01:35:21.547Z,18.46
2018-07-27T01:37:50.203Z,18.25
2018-07-27T01:40:18.643Z,18.14
2018-07-27T01:42:47.346Z,18.34
2018-07-27T01:45:16.051Z,18.59
2018-07-27T01:47:44.496Z,18.73
2018-07-27T01:50:13.185Z,18.75
2018-07-27T01:52:41.881Z,18.49
2018-07-27T01:55:10.635Z,18.53
2018-07-27T01:57:39.325Z,18.55
2018-07-27T02:00:08.183Z,18.47
2018-07-27T02:02:36.885Z,18.44
2018-07-27T02:05:06.564Z,18.78
2018-07-27T02:07:35.032Z,18.64
2018-07-27T02:10:04.210Z,18.58
2018-07-27T02:12:32.900Z,18.54
2018-07-27T02:15:01.543Z,18.54
2018-07-27T02:17:30.247Z,18.53
2018-07-27T02:19:58.895Z,18.57
2018-07-27T02:22:27.585Z,18.58
2018-07-27T02:24:56.239Z,18.61
2018-07-27T02:27:24.738Z,18.63
2018-07-27T02:29:53.406Z,18.96
2018-07-27T02:32:21.906Z,19.09
2018-07-27T02:34:50.652Z,19.15
2018-07-27T02:37:19.320Z,19.25
2018-07-27T02:39:47.992Z,19.04
2018-07-27T02:42:16.735Z,18.92
2018-07-27T02:44:45.315Z,18.83
2018-07-27T02:47:14.029Z,18.76
2018-07-27T02:49:42.763Z,18.71
2018-07-27T02:52:11.545Z,18.69
2018-07-27T02:54:40.344Z,18.58
2018-07-27T02:57:09.043Z,18.52
2018-07-27T02:59:37.773Z,18.62
2018-07-27T03:02:06.648Z,18.47
2018-07-27T03:04:35.336Z,18.37
2018-07-27T03:07:04.168Z,18.32
2018-07-27T03:09:32.869Z,18.17
2018-07-27T03:12:01.575Z,18.00
2018-07-27T03:14:30.229Z,17.88
2018-07-27T03:16:58.918Z,17.77
2018-07-27T03:19:27.611Z,17.74
2018-07-27T03:21:56.138Z,17.76
2018-07-27T03:24:24.802Z,17.95
2018-07-27T03:26:53.289Z,17.87
2018-07-27T03:29:21.927Z,18.08
2018-07-27T03:31:50.751Z,18.11
2018-07-27T03:34:19.450Z,17.96
2018-07-27T03:36:48.116Z,17.81
2018-07-27T03:39:16.686Z,17.93
2018-07-27T03:41:45.333Z,18.12
2018-07-27T03:44:14.058Z,18.29
2018-07-27T03:46:42.710Z,18.17
2018-07-27T03:49:11.471Z,18.11
2018-07-27T03:51:40.151Z,18.10
2018-07-27T03:54:08.876Z,18.09
2018-07-27T03:56:37.556Z,18.08
2018-07-27T03:59:06.224Z,18.14
2018-07-27T04:01:35.043Z,18.26
2018-07-27T04:04:03.700Z,18.32
2018-07-27T04:06:32.336Z,18.34
2018-07-27T04:09:00.990Z,18.47
2018-07-27T04:11:29.615Z,18.58
2018-07-27T04:13:58.119Z,18.65
2018-07-27T04:16:26.828Z,18.72
2018-07-27T04:18:55.525Z,18.81
2018-07-27T04:21:24.247Z,18.51
2018-07-27T04:23:52.715Z,18.32
2018-07-27T04:26:21.439Z,18.32
2018-07-27T04:28:50.108Z,18.40
2018-07-27T04:31:18.617Z,18.61
2018-07-27T04:33:47.323Z,18.90
2018-07-27T04:36:16.016Z,19.05
2018-07-27T04:38:44.665Z,19.42
2018-07-27T04:41:13.368Z,19.58
2018-07-27T04:43:42.046Z,19.52
2018-07-27T04:46:10.744Z,19.40
2018-07-27T04:48:39.508Z,18.60
2018-07-27T04:51:08.193Z,19.37
2018-07-27T04:53:36.955Z,19.76
2018-07-27T04:56:05.817Z,20.60
2018-07-27T04:58:34.535Z,20.59
2018-07-27T05:01:03.070Z,20.46
2018-07-27T05:03:31.765Z,20.44
2018-07-27T05:06:00.443Z,20.51
2018-07-27T05:08:29.103Z,20.61
2018-07-27T05:10:57.795Z,20.91
2018-07-27T05:13:26.463Z,21.42
2018-07-27T05:15:55.245Z,21.95
2018-07-27T05:18:24.062Z,22.51
2018-07-27T05:20:52.736Z,22.51
2018-07-27T05:23:21.474Z,22.71
2018-07-27T05:25:50.095Z,22.76
2018-07-27T05:28:18.741Z,23.19
2018-07-27T05:30:47.386Z,23.30
2018-07-27T05:33:16.097Z,23.21
2018-07-27T05:35:44.819Z,23.02
2018-07-27T05:38:13.467Z,23.05
2018-07-27T05:40:42.133Z,22.97
2018-07-27T05:43:10.781Z,22.82
2018-07-27T05:45:39.420Z,22.58
2018-07-27T05:48:08.106Z,22.50
2018-07-27T05:50:36.766Z,22.35
2018-07-27T05:53:05.434Z,22.32
2018-07-27T05:55:34.158Z,22.15
2018-07-27T05:58:02.953Z,22.17
2018-07-27T06:00:31.688Z,22.13
2018-07-27T06:03:00.444Z,21.38
2018-07-27T06:05:29.180Z,22.27
2018-07-27T06:07:57.825Z,22.57
2018-07-27T06:10:26.395Z,22.60
2018-07-27T06:12:55.164Z,22.83
2018-07-27T06:15:24.099Z,22.94
2018-07-27T06:17:52.887Z,22.98
2018-07-27T06:20:21.581Z,23.13
2018-07-27T06:22:50.336Z,23.29
2018-07-27T06:25:18.870Z,23.47
2018-07-27T06:27:47.663Z,23.96
2018-07-27T06:30:16.387Z,24.36
2018-07-27T06:32:45.028Z,24.72
2018-07-27T06:35:13.733Z,25.02
2018-07-27T06:37:42.490Z,25.40
2018-07-27T06:40:11.248Z,25.90
2018-07-27T06:42:39.718Z,26.31
2018-07-27T06:45:08.252Z,26.59
2018-07-27T06:47:36.920Z,26.68
2018-07-27T06:50:05.947Z,26.67
2018-07-27T06:52:34.805Z,26.84
2018-07-27T06:55:03.306Z,27.23
2018-07-27T06:57:31.933Z,27.41
2018-07-27T07:00:00.579Z,27.33
2018-07-27T07:02:29.240Z,27.45
2018-07-27T07:04:57.899Z,27.56
2018-07-27T07:07:26.627Z,27.88
2018-07-27T07:09:55.354Z,28.25
2018-07-27T07:12:23.981Z,28.28
2018-07-27T07:14:52.902Z,28.04
2018-07-27T07:17:21.631Z,28.38
2018-07-27T07:19:50.274Z,28.14
2018-07-27T07:22:18.974Z,28.70
2018-07-27T07:24:47.664Z,28.78
2018-07-27T07:27:16.375Z,29.05
2018-07-27T07:29:44.844Z,29.17
2018-07-27T07:32:13.332Z,29.48
2018-07-27T07:34:42.804Z,30.17
2018-07-27T07:37:12.711Z,30.17
2018-07-27T07:39:42.470Z,30.04
2018-07-27T07:42:11.146Z,29.56
2018-07-27T07:44:39.615Z,29.22
2018-07-27T07:47:08.293Z,29.24
2018-07-27T07:49:37.006Z,29.27
2018-07-27T07:52:05.868Z,29.94
2018-07-27T07:54:37.721Z,30.14
2018-07-27T07:57:06.532Z,30.49
2018-07-27T07:59:35.091Z,30.82
2018-07-27T08:02:03.866Z,31.17
2018-07-27T08:04:33.489Z,31.18
2018-07-27T08:07:02.236Z,31.79
2018-07-27T08:09:30.926Z,31.46
2018-07-27T08:12:00.376Z,31.44
2018-07-27T08:14:29.328Z,31.44
2018-07-27T08:16:58.119Z,31.72
2018-07-27T08:19:27.638Z,31.81
2018-07-27T08:21:56.358Z,31.50
2018-07-27T08:24:24.806Z,31.68
2018-07-27T08:26:55.507Z,32.06
2018-07-27T08:29:28.153Z,32.40
2018-07-27T08:31:57.344Z,33.22
2018-07-27T08:34:25.911Z,32.48
2018-07-27T08:36:54.823Z,32.23
2018-07-27T08:39:24.762Z,32.21
2018-07-27T08:41:53.536Z,31.78
2018-07-27T08:44:27.533Z,30.73
2018-07-27T08:46:56.289Z,31.31
2018-07-27T08:49:25.051Z,31.96
2018-07-27T08:51:53.879Z,32.25
2018-07-27T08:54:22.669Z,32.87
2018-07-27T08:56:51.333Z,32.97
2018-07-27T08:59:20.027Z,32.97
2018-07-27T09:01:48.791Z,33.12
2018-07-27T09:04:17.529Z,33.40
2018-07-27T09:06:46.264Z,33.56
2018-07-27T09:09:16.132Z,33.84
2018-07-27T09:11:44.837Z,33.94
2018-07-27T09:14:13.701Z,34.34
2018-07-27T09:16:42.423Z,34.56
2018-07-27T09:19:11.123Z,34.94
2018-07-27T09:21:41.798Z,34.87
2018-07-27T09:24:10.669Z,34.95
2018-07-27T09:26:39.339Z,35.17
2018-07-27T09:29:08.017Z,35.44
2018-07-27T09:31:36.699Z,35.25
2018-07-27T09:34:05.518Z,35.58
2018-07-27T09:36:34.201Z,35.79
2018-07-27T09:39:03.066Z,35.68
2018-07-27T09:41:31.801Z,36.18
2018-07-27T09:44:00.384Z,36.25
2018-07-27T09:46:29.177Z,36.36
2018-07-27T09:48:57.851Z,36.58
2018-07-27T09:51:26.386Z,36.65
2018-07-27T09:53:55.166Z,36.46
2018-07-27T09:56:23.925Z,36.73
2018-07-27T09:58:53.370Z,36.58
2018-07-27T10:01:23.353Z,36.80
2018-07-27T10:03:53.413Z,36.93
2018-07-27T10:06:22.147Z,36.60
2018-07-27T10:08:50.838Z,36.73
2018-07-27T10:11:20.007Z,37.19
2018-07-27T10:13:48.731Z,36.55
2018-07-27T10:16:17.459Z,36.39
2018-07-27T10:18:46.201Z,36.65
2018-07-27T10:21:14.918Z,36.87
2018-07-27T10:23:43.614Z,37.04
2018-07-27T10:26:16.324Z,37.22
2018-07-27T10:28:45.001Z,36.69
2018-07-27T10:31:13.654Z,36.02
2018-07-27T10:33:42.393Z,36.10
2018-07-27T10:36:11.028Z,36.67
2018-07-27T10:38:39.781Z,37.20
2018-07-27T10:41:08.397Z,37.66
2018-07-27T10:43:37.053Z,37.24
2018-07-27T10:46:07.385Z,37.27
2018-07-27T10:48:36.091Z,37.39
2018-07-27T10:51:04.783Z,37.50
2018-07-27T10:53:33.431Z,37.30
2018-07-27T10:56:02.205Z,37.67
2018-07-27T10:58:31.838Z,38.00
2018-07-27T11:01:00.486Z,37.78
2018-07-27T11:03:28.973Z,38.13
2018-07-27T11:05:58.536Z,38.12
2018-07-27T11:08:28.171Z,38.51
2018-07-27T11:10:56.871Z,38.19
2018-07-27T11:13:25.541Z,38.50
2018-07-27T11:15:54.270Z,38.88
2018-07-27T11:18:22.969Z,39.15
2018-07-27T11:20:51.630Z,38.93
2018-07-27T11:23:20.278Z,39.01
2018-07-27T11:25:48.928Z,38.85
2018-07-27T11:28:17.600Z,38.77
2018-07-27T11:30:46.691Z,39.48
2018-07-27T11:33:15.366Z,39.84
2018-07-27T11:35:44.105Z,39.66
2018-07-27T11:38:12.811Z,39.32
2018-07-27T11:40:41.703Z,39.53
2018-07-27T11:43:10.454Z,39.81
2018-07-27T11:45:39.123Z,40.25
2018-07-27T11:48:07.805Z,39.89
2018-07-27T11:50:36.486Z,39.78
2018-07-27T11:53:05.251Z,39.84
2018-07-27T11:55:33.915Z,39.67
2018-07-27T11:58:02.580Z,39.74
2018-07-27T12:00:32.174Z,40.00
2018-07-27T12:03:00.876Z,40.24
2018-07-27T12:05:29.684Z,40.11
2018-07-27T12:07:58.195Z,39.69
2018-07-27T12:10:26.953Z,39.92
2018-07-27T12:12:55.852Z,39.96
2018-07-27T12:15:24.348Z,39.91
2018-07-27T12:17:53.040Z,39.78
2018-07-27T12:20:21.865Z,39.85
2018-07-27T12:22:50.552Z,40.45
2018-07-27T12:25:19.291Z,40.58
2018-07-27T12:27:48.094Z,40.67
2018-07-27T12:30:16.747Z,40.40
2018-07-27T12:32:45.193Z,40.57
2018-07-27T12:35:13.872Z,41.42
2018-07-27T12:37:42.625Z,41.35
2018-07-27T12:40:11.320Z,41.23
2018-07-27T12:42:39.990Z,41.23
2018-07-27T12:45:08.686Z,40.63
2018-07-27T12:47:38.135Z,40.53
2018-07-27T12:50:06.893Z,40.16
2018-07-27T12:52:36.273Z,39.86
2018-07-27T12:55:05.653Z,39.74
2018-07-27T12:57:35.078Z,40.30
2018-07-27T13:00:05.399Z,40.31
2018-07-27T13:02:34.146Z,40.63
2018-07-27T13:05:02.877Z,40.97
2018-07-27T13:07:31.666Z,41.36
2018-07-27T13:10:06.497Z,40.69
2018-07-27T13:12:36.908Z,40.52
2018-07-27T13:15:07.740Z,40.35
2018-07-27T13:17:38.099Z,40.78
2018-07-27T13:20:07.543Z,40.87
2018-07-27T13:22:36.312Z,41.13
2018-07-27T13:25:05.167Z,41.44
2018-07-27T13:27:33.810Z,41.78
2018-07-27T13:30:03.866Z,42.02
2018-07-27T13:32:32.543Z,42.07
2018-07-27T13:35:01.361Z,41.85
2018-07-27T13:40:01.264Z,41.81
2018-07-27T13:42:31.290Z,41.94
2018-07-27T13:45:00.083Z,41.67
2018-07-27T13:47:28.813Z,41.51
2018-07-27T13:49:57.551Z,40.96
2018-07-27T13:52:26.241Z,40.72
2018-07-27T13:54:55.388Z,40.93
2018-07-27T13:57:24.118Z,41.33
2018-07-27T13:59:52.915Z,41.61
2018-07-27T14:02:22.083Z,41.53
2018-07-27T14:04:50.839Z,41.57
2018-07-27T14:07:20.135Z,41.74
2018-07-27T14:09:48.845Z,41.67
2018-07-27T14:12:17.376Z,41.18
2018-07-27T14:14:46.076Z,40.94
2018-07-27T14:17:14.796Z,40.82
2018-07-27T14:19:43.513Z,40.91
2018-07-27T14:22:12.228Z,41.22
2018-07-27T14:24:40.945Z,41.47
2018-07-27T14:27:09.904Z,40.73
2018-07-27T14:29:39.130Z,40.61
2018-07-27T14:32:08.712Z,39.49
2018-07-27T14:34:37.473Z,39.40
2018-07-27T14:37:06.321Z,39.22
2018-07-27T14:39:35.005Z,39.21
2018-07-27T14:42:03.755Z,39.60
2018-07-27T14:44:32.629Z,39.13
2018-07-27T14:47:01.296Z,39.46
2018-07-27T14:49:29.992Z,39.73
2018-07-27T14:51:58.675Z,39.47
2018-07-27T14:54:27.430Z,39.10
2018-07-27T14:56:56.190Z,38.40
2018-07-27T14:59:25.378Z,37.98
2018-07-27T15:01:54.056Z,38.63
2018-07-27T15:04:22.778Z,38.40
2018-07-27T15:06:51.515Z,39.13
2018-07-27T15:09:20.142Z,39.40
2018-07-27T15:11:48.800Z,39.19
2018-07-27T15:14:17.522Z,38.47
2018-07-27T15:16:46.755Z,38.62
2018-07-27T15:19:15.428Z,39.22
2018-07-27T15:21:43.930Z,38.98
2018-07-27T15:24:12.662Z,39.27
2018-07-27T15:26:41.403Z,39.58
2018-07-27T15:29:11.066Z,39.62
2018-07-27T15:31:39.766Z,39.36
2018-07-27T15:34:08.258Z,39.38
2018-07-27T15:36:36.823Z,38.40
2018-07-27T15:39:07.888Z,38.62
2018-07-27T15:41:36.861Z,38.56
2018-07-27T15:44:05.633Z,38.63
2018-07-27T15:46:34.350Z,38.80
2018-07-27T15:49:03.572Z,38.84
2018-07-27T15:51:33.231Z,38.87
2018-07-27T15:54:02.603Z,37.90
2018-07-27T15:56:32.186Z,36.54
2018-07-27T15:59:01.801Z,35.79
2018-07-27T16:01:30.585Z,35.19
2018-07-27T16:03:59.282Z,34.67
2018-07-27T16:06:27.826Z,34.45
2018-07-27T16:08:56.552Z,33.92
2018-07-27T16:11:25.363Z,33.44
2018-07-27T16:13:54.262Z,33.30
2018-07-27T16:16:23.005Z,33.19
2018-07-27T16:18:51.634Z,32.93
2018-07-27T16:21:20.345Z,32.91
2018-07-27T16:23:48.782Z,32.69
2018-07-27T16:26:17.520Z,32.63
2018-07-27T16:28:46.183Z,32.59
2018-07-27T16:31:14.945Z,31.99
2018-07-27T16:33:43.613Z,29.25
2018-07-27T16:36:12.323Z,27.68
2018-07-27T16:38:41.050Z,26.90
2018-07-27T16:41:09.804Z,26.64
2018-07-27T16:43:38.481Z,26.34
2018-07-27T16:46:07.216Z,25.97
2018-07-27T16:48:35.906Z,25.73
2018-07-27T16:51:04.699Z,25.63
2018-07-27T16:53:34.454Z,25.56
2018-07-27T16:56:03.255Z,25.78
2018-07-27T16:58:31.993Z,26.00
2018-07-27T17:01:00.699Z,26.06
2018-07-27T17:03:29.404Z,26.17
2018-07-27T17:05:58.062Z,26.44
2018-07-27T17:08:26.883Z,26.68
2018-07-27T17:10:55.613Z,26.78
2018-07-27T17:13:24.351Z,26.94
2018-07-27T17:15:53.486Z,26.88
2018-07-27T17:18:22.233Z,26.85
2018-07-27T17:20:50.934Z,27.00
2018-07-27T17:23:19.633Z,27.17
2018-07-27T17:25:48.218Z,27.38
2018-07-27T17:30:39.294Z,27.34
2018-07-27T17:33:08.037Z,27.46
2018-07-27T17:35:36.698Z,27.95
2018-07-27T17:38:05.601Z,28.14
2018-07-27T17:40:34.109Z,28.17
2018-07-27T17:43:02.825Z,28.05
2018-07-27T17:45:32.250Z,27.70
2018-07-27T17:48:01.044Z,27.44
2018-07-27T17:50:29.710Z,27.16
2018-07-27T17:52:59.411Z,27.01
2018-07-27T17:55:28.146Z,26.73
2018-07-27T17:57:58.651Z,26.56
2018-07-27T18:00:27.490Z,26.60
2018-07-27T18:02:56.172Z,26.58
2018-07-27T18:05:24.875Z,26.47
2018-07-27T18:07:53.652Z,26.40
2018-07-27T18:10:22.077Z,26.26
2018-07-27T18:12:50.729Z,26.08
2018-07-27T18:15:19.826Z,25.82
2018-07-27T18:17:48.453Z,25.66
2018-07-27T18:20:17.198Z,25.53
2018-07-27T18:22:45.953Z,25.50
2018-07-27T18:25:17.172Z,25.35
2018-07-27T18:27:46.563Z,25.27
2018-07-27T18:30:15.422Z,25.13
2018-07-27T18:32:44.104Z,25.37
2018-07-27T18:35:12.741Z,25.25
2018-07-27T18:37:41.455Z,25.17
2018-07-27T18:40:10.163Z,24.99
2018-07-27T18:42:38.803Z,24.86
2018-07-27T18:45:07.875Z,24.86
2018-07-27T18:47:36.686Z,24.81
2018-07-27T18:50:07.085Z,24.73
2018-07-27T18:52:36.283Z,24.66
2018-07-27T18:55:05.521Z,24.59
2018-07-27T18:57:34.263Z,24.57
2018-07-27T19:00:03.266Z,24.48
2018-07-27T19:02:32.278Z,24.37
2018-07-27T19:05:00.742Z,24.34
2018-07-27T19:07:29.480Z,24.24
2018-07-27T19:09:58.162Z,24.11
2018-07-27T19:12:26.952Z,24.04
2018-07-27T19:14:55.716Z,23.96
2018-07-27T19:17:24.561Z,23.96
2018-07-27T19:19:53.260Z,23.92
2018-07-27T19:22:22.003Z,23.88
2018-07-27T19:24:50.715Z,23.89
2018-07-27T19:27:19.417Z,23.93
2018-07-27T19:29:48.075Z,23.97
2018-07-27T19:32:16.773Z,23.99
2018-07-27T19:34:45.575Z,23.81
2018-07-27T19:37:14.303Z,23.62
2018-07-27T19:39:42.998Z,23.45
2018-07-27T19:42:11.696Z,23.45
2018-07-27T19:44:40.550Z,23.47
2018-07-27T19:47:09.643Z,23.49
2018-07-27T19:49:38.171Z,23.47
2018-07-27T19:52:07.443Z,23.58
2018-07-27T19:54:36.225Z,23.65
2018-07-27T19:57:04.948Z,23.66
2018-07-27T19:59:33.605Z,23.66
2018-07-27T20:02:02.357Z,23.62
2018-07-27T20:04:30.918Z,23.51
2018-07-27T20:06:59.681Z,23.43
2018-07-27T20:09:29.087Z,23.43
2018-07-27T20:11:57.951Z,23.37
2018-07-27T20:14:27.092Z,23.21
2018-07-27T20:16:55.860Z,23.03
2018-07-27T20:19:25.088Z,22.94
2018-07-27T20:21:53.832Z,23.26
2018-07-27T20:24:22.545Z,23.14
2018-07-27T20:26:51.297Z,23.00
2018-07-27T20:29:20.091Z,23.00
2018-07-27T20:31:48.940Z,22.97
2018-07-27T20:34:18.518Z,22.94
2018-07-27T20:36:47.217Z,22.91
2018-07-27T20:39:15.962Z,22.89
2018-07-27T20:41:44.745Z,22.77
2018-07-27T20:44:13.490Z,22.77
2018-07-27T20:46:42.037Z,22.80
2018-07-27T20:49:11.553Z,22.85
2018-07-27T20:51:40.885Z,22.91
2018-07-27T20:54:10.724Z,22.89
2018-07-27T20:56:39.493Z,22.81
2018-07-27T20:59:09.131Z,23.17
2018-07-27T21:01:37.877Z,22.91
2018-07-27T21:04:06.416Z,22.84
2018-07-27T21:06:35.146Z,22.83
2018-07-27T21:09:06.467Z,22.90
2018-07-27T21:11:35.881Z,22.90
2018-07-27T21:14:05.248Z,22.90
2018-07-27T21:16:34.032Z,22.86
2018-07-27T21:19:02.775Z,22.86
2018-07-27T21:21:31.704Z,22.82
2018-07-27T21:24:00.454Z,22.81
2018-07-27T21:26:29.135Z,22.76
2018-07-27T21:28:57.706Z,22.66
2018-07-27T21:31:26.377Z,22.57
2018-07-27T21:33:55.073Z,22.53
2018-07-27T21:36:23.757Z,22.44
2018-07-27T21:38:52.465Z,22.35
2018-07-27T21:41:21.465Z,22.16
2018-07-27T21:43:50.213Z,22.04
2018-07-27T21:46:19.038Z,21.91
2018-07-27T21:48:47.730Z,21.79
2018-07-27T21:51:16.462Z,21.69
2018-07-27T21:53:45.935Z,21.64
2018-07-27T21:56:14.735Z,21.57
2018-07-27T21:58:43.620Z,21.53
2018-07-27T22:01:12.480Z,21.55
2018-07-27T22:03:40.900Z,21.52
2018-07-27T22:06:09.626Z,21.59
2018-07-27T22:08:38.273Z,21.68
2018-07-27T22:11:07.183Z,21.79
2018-07-27T22:13:35.879Z,21.82
2018-07-27T22:16:04.577Z,21.78
2018-07-27T22:18:33.263Z,21.69
2018-07-27T22:21:01.962Z,21.64
2018-07-27T22:23:30.470Z,21.60
2018-07-27T22:25:59.128Z,21.58
2018-07-27T22:28:27.792Z,21.59
2018-07-27T22:30:56.571Z,21.57
2018-07-27T22:33:25.248Z,21.55
2018-07-27T22:35:53.957Z,21.49
2018-07-27T22:38:22.661Z,21.51
2018-07-27T22:40:51.138Z,21.66
2018-07-27T22:43:19.816Z,21.95
2018-07-27T22:45:48.325Z,21.82
2018-07-27T22:48:17.028Z,21.69
2018-07-27T22:50:46.344Z,21.76
2018-07-27T22:53:15.083Z,21.68
2018-07-27T22:55:43.829Z,21.66
2018-07-27T22:58:12.493Z,21.77
2018-07-27T23:00:41.695Z,21.72
2018-07-27T23:03:10.350Z,21.72
2018-07-27T23:05:39.000Z,20.37
2018-07-27T23:08:07.680Z,21.67
2018-07-27T23:10:36.325Z,21.61
2018-07-27T23:13:05.040Z,21.49
2018-07-27T23:15:33.808Z,21.34
2018-07-27T23:18:02.505Z,21.25
2018-07-27T23:20:31.178Z,21.20
2018-07-27T23:22:59.809Z,21.26
2018-07-27T23:25:28.307Z,21.26
2018-07-27T23:27:56.927Z,21.25
2018-07-27T23:30:25.866Z,21.18
2018-07-27T23:32:54.706Z,21.04
2018-07-27T23:35:23.378Z,20.96
2018-07-27T23:37:52.178Z,20.93
2018-07-27T23:40:20.811Z,20.91
2018-07-27T23:42:49.279Z,20.95
2018-07-27T23:45:17.908Z,20.95
2018-07-27T23:47:46.589Z,20.88
2018-07-27T23:50:15.303Z,20.83
2018-07-27T23:52:44.006Z,20.78
2018-07-27T23:55:12.771Z,20.73
2018-07-27T23:57:41.410Z,20.67
